createdAt,value
2022-09-03T00:00:02.110Z,63.29
2022-09-03T00:01:02.094Z,63.56
2022-09-03T00:02:02.172Z,63.39
2022-09-03T00:03:02.143Z,63.08
2022-09-03T00:04:02.075Z,63.59
2022-09-03T00:05:02.055Z,63.89
2022-09-03T00:06:02.036Z,63.79
2022-09-03T00:07:02.024Z,63.89
2022-09-03T00:08:02.013Z,63.79
2022-09-03T00:09:01.998Z,63.79
2022-09-03T00:10:01.999Z,64.10
2022-09-03T00:11:01.975Z,63.79
2022-09-03T00:12:01.967Z,63.59
2022-09-03T00:13:01.954Z,63.89
2022-09-03T00:14:01.962Z,63.89
2022-09-03T00:15:01.938Z,63.89
2022-09-03T00:16:01.948Z,63.89
2022-09-03T00:17:01.911Z,63.89
2022-09-03T00:18:01.900Z,64.00
2022-09-03T00:19:01.901Z,63.89
2022-09-03T00:20:01.877Z,64.00
2022-09-03T00:21:01.865Z,63.89
2022-09-03T00:22:01.856Z,63.89
2022-09-03T00:23:01.848Z,63.92
2022-09-03T00:24:01.845Z,63.79
2022-09-03T00:25:01.822Z,63.89
2022-09-03T00:26:01.815Z,63.79
2022-09-03T00:27:01.799Z,63.72
2022-09-03T00:28:01.795Z,63.59
2022-09-03T00:29:01.789Z,63.62
2022-09-03T00:30:01.768Z,63.92
2022-09-03T00:31:01.782Z,63.72
2022-09-03T00:32:01.747Z,63.69
2022-09-03T00:33:01.736Z,64.43
2022-09-03T00:34:01.732Z,63.82
2022-09-03T00:35:01.713Z,64.03
2022-09-03T00:36:01.701Z,64.13
2022-09-03T00:37:01.688Z,64.10
2022-09-03T00:38:01.679Z,64.23
2022-09-03T00:39:01.680Z,64.13
2022-09-03T00:40:01.732Z,64.13
2022-09-03T00:41:01.653Z,64.03
2022-09-03T00:42:01.635Z,64.53
2022-09-03T00:43:01.624Z,64.53
2022-09-03T00:44:01.623Z,64.53
2022-09-03T00:45:01.601Z,64.64
2022-09-03T00:46:01.714Z,64.53
2022-09-03T00:47:01.579Z,64.64
2022-09-03T00:48:01.571Z,64.56
2022-09-03T00:49:01.566Z,64.43
2022-09-03T00:50:01.570Z,64.53
2022-09-03T00:51:01.535Z,64.43
2022-09-03T00:52:01.523Z,64.67
2022-09-03T00:53:01.514Z,65.04
2022-09-03T00:54:01.512Z,64.67
2022-09-03T00:55:01.498Z,64.64
2022-09-03T00:56:01.481Z,64.46
2022-09-03T00:57:01.468Z,64.97
2022-09-03T00:58:01.510Z,64.87
2022-09-03T00:59:01.457Z,64.76
2022-09-03T01:00:01.438Z,64.76
2022-09-03T01:01:01.423Z,64.84
2022-09-03T01:02:01.543Z,65.17
2022-09-03T01:03:01.401Z,64.76
2022-09-03T01:04:01.401Z,64.87
2022-09-03T01:05:01.379Z,65.07
2022-09-03T01:06:01.997Z,65.07
2022-09-03T01:07:01.356Z,65.17
2022-09-03T01:08:01.349Z,65.48
2022-09-03T01:09:01.335Z,65.61
2022-09-03T01:10:01.337Z,65.88
2022-09-03T01:11:01.311Z,65.58
2022-09-03T01:12:01.304Z,65.41
2022-09-03T01:13:01.292Z,65.58
2022-09-03T01:14:01.282Z,65.48
2022-09-03T01:15:01.280Z,65.07
2022-09-03T01:16:01.307Z,65.27
2022-09-03T01:17:01.252Z,64.97
2022-09-03T01:18:01.237Z,65.27
2022-09-03T01:19:01.225Z,65.27
2022-09-03T01:20:01.223Z,65.17
2022-09-03T01:21:01.208Z,64.97
2022-09-03T01:22:01.192Z,64.97
2022-09-03T01:23:01.214Z,65.27
2022-09-03T01:24:01.171Z,65.17
2022-09-03T01:25:01.168Z,65.17
2022-09-03T01:26:01.149Z,65.51
2022-09-03T01:27:01.137Z,65.30
2022-09-03T01:28:01.126Z,65.17
2022-09-03T01:29:01.113Z,65.71
2022-09-03T01:30:01.113Z,65.81
2022-09-03T01:31:01.140Z,65.61
2022-09-03T01:32:01.081Z,65.10
2022-09-03T01:33:01.067Z,65.20
2022-09-03T01:34:01.077Z,65.30
2022-09-03T01:35:01.060Z,64.97
2022-09-03T01:36:01.042Z,65.07
2022-09-03T01:37:01.025Z,65.27
2022-09-03T01:38:01.022Z,64.97
2022-09-03T01:39:01.018Z,65.07
2022-09-03T01:40:01.071Z,65.00
2022-09-03T01:41:00.981Z,65.41
2022-09-03T01:42:00.981Z,65.41
2022-09-03T01:43:00.960Z,65.61
2022-09-03T01:44:00.960Z,65.51
2022-09-03T01:45:00.937Z,65.81
2022-09-03T01:46:00.960Z,65.51
2022-09-03T01:47:00.917Z,66.32
2022-09-03T01:48:00.913Z,66.35
2022-09-03T01:49:00.899Z,65.61
2022-09-03T01:50:00.884Z,66.02
2022-09-03T01:51:00.898Z,65.81
2022-09-03T01:52:00.860Z,66.12
2022-09-03T01:53:00.859Z,65.81
2022-09-03T01:54:00.876Z,65.81
2022-09-03T01:55:00.824Z,65.84
2022-09-03T01:56:00.816Z,65.84
2022-09-03T01:57:00.806Z,65.84
2022-09-03T01:58:00.804Z,66.02
2022-09-03T01:59:00.786Z,65.84
2022-09-03T02:00:00.772Z,65.91
2022-09-03T02:01:00.761Z,66.05
2022-09-03T02:02:00.840Z,66.05
2022-09-03T02:03:00.794Z,66.52
2022-09-03T02:04:00.729Z,66.86
2022-09-03T02:05:00.713Z,66.46
2022-09-03T02:06:00.714Z,66.86
2022-09-03T02:07:00.692Z,66.46
2022-09-03T02:08:00.692Z,65.91
2022-09-03T02:09:00.672Z,66.05
2022-09-03T02:10:00.663Z,65.91
2022-09-03T02:11:00.648Z,66.05
2022-09-03T02:12:01.275Z,65.81
2022-09-03T02:13:00.638Z,65.91
2022-09-03T02:14:00.616Z,65.81
2022-09-03T02:15:00.604Z,65.74
2022-09-03T02:16:00.841Z,65.94
2022-09-03T02:17:00.590Z,66.25
2022-09-03T02:18:00.584Z,66.66
2022-09-03T02:19:00.561Z,66.66
2022-09-03T02:20:00.552Z,66.05
2022-09-03T02:21:00.537Z,66.46
2022-09-03T02:22:00.529Z,65.94
2022-09-03T02:23:00.526Z,66.55
2022-09-03T02:24:00.508Z,65.84
2022-09-03T02:25:00.493Z,66.55
2022-09-03T02:26:00.484Z,66.55
2022-09-03T02:27:00.471Z,66.86
2022-09-03T02:28:00.478Z,66.25
2022-09-03T02:29:00.453Z,66.18
2022-09-03T02:30:00.444Z,66.58
2022-09-03T02:31:00.511Z,67.10
2022-09-03T02:32:00.418Z,67.30
2022-09-03T02:33:00.429Z,67.74
2022-09-03T02:34:00.396Z,67.94
2022-09-03T02:35:00.381Z,68.14
2022-09-03T02:36:00.375Z,68.35
2022-09-03T02:37:00.360Z,67.74
2022-09-03T02:38:00.349Z,68.04
2022-09-03T02:39:00.352Z,67.83
2022-09-03T02:40:00.406Z,67.50
2022-09-03T02:41:00.317Z,67.43
2022-09-03T02:42:00.307Z,67.19
2022-09-03T02:43:00.333Z,67.63
2022-09-03T02:44:00.299Z,67.63
2022-09-03T02:45:00.273Z,67.43
2022-09-03T02:46:00.349Z,67.83
2022-09-03T02:47:00.252Z,68.04
2022-09-03T02:48:00.240Z,68.14
2022-09-03T02:49:00.241Z,67.74
2022-09-03T02:50:00.222Z,67.60
2022-09-03T02:51:00.207Z,67.80
2022-09-03T02:52:00.203Z,66.99
2022-09-03T02:53:00.189Z,67.13
2022-09-03T02:54:00.193Z,67.83
2022-09-03T02:55:00.172Z,67.83
2022-09-03T02:56:00.165Z,67.71
2022-09-03T02:57:00.140Z,67.40
2022-09-03T02:58:00.142Z,67.40
2022-09-03T02:59:00.126Z,67.22
2022-09-03T03:00:00.147Z,66.89
2022-09-03T03:01:00.211Z,67.40
2022-09-03T03:02:01.078Z,67.63
2022-09-03T03:03:00.087Z,67.22
2022-09-03T03:04:00.079Z,67.60
2022-09-03T03:05:00.065Z,67.63
2022-09-03T03:06:00.052Z,68.04
2022-09-03T03:07:00.052Z,67.83
2022-09-03T03:08:00.033Z,67.94
2022-09-03T03:09:00.008Z,68.24
2022-09-03T03:10:00.072Z,68.24
2022-09-03T03:11:00.086Z,68.35
2022-09-03T03:11:59.980Z,68.14
2022-09-03T03:12:59.977Z,68.24
2022-09-03T03:13:59.955Z,68.14
2022-09-03T03:14:59.945Z,68.24
2022-09-03T03:15:59.932Z,68.24
2022-09-03T03:16:59.988Z,68.24
2022-09-03T03:17:59.924Z,68.14
2022-09-03T03:18:59.898Z,68.35
2022-09-03T03:19:59.888Z,68.04
2022-09-03T03:20:59.878Z,68.14
2022-09-03T03:21:59.866Z,68.24
2022-09-03T03:22:59.870Z,68.24
2022-09-03T03:23:59.846Z,68.04
2022-09-03T03:24:59.836Z,67.94
2022-09-03T03:25:59.825Z,68.24
2022-09-03T03:26:59.814Z,68.14
2022-09-03T03:27:59.810Z,68.44
2022-09-03T03:28:59.789Z,68.24
2022-09-03T03:29:59.779Z,68.14
2022-09-03T03:30:59.809Z,68.07
2022-09-03T03:31:59.760Z,68.14
2022-09-03T03:32:59.755Z,68.27
2022-09-03T03:33:59.734Z,68.38
2022-09-03T03:34:59.725Z,68.18
2022-09-03T03:35:59.714Z,68.44
2022-09-03T03:36:59.700Z,68.24
2022-09-03T03:37:59.707Z,68.27
2022-09-03T03:38:59.679Z,68.38
2022-09-03T03:39:59.719Z,68.18
2022-09-03T03:40:59.658Z,68.07
2022-09-03T03:41:59.647Z,68.07
2022-09-03T03:42:59.648Z,68.35
2022-09-03T03:43:59.625Z,68.18
2022-09-03T03:44:59.612Z,68.07
2022-09-03T03:45:59.692Z,68.18
2022-09-03T03:46:59.591Z,68.27
2022-09-03T03:47:59.595Z,68.38
2022-09-03T03:48:59.569Z,68.48
2022-09-03T03:49:59.561Z,69.32
2022-09-03T03:50:59.546Z,69.02
2022-09-03T03:51:59.562Z,69.12
2022-09-03T03:52:59.534Z,69.23
2022-09-03T03:54:04.365Z,69.23
2022-09-03T03:55:00.502Z,69.23
2022-09-03T03:55:59.494Z,69.73
2022-09-03T03:56:59.483Z,69.63
2022-09-03T03:57:59.490Z,69.76
2022-09-03T03:58:59.485Z,69.67
2022-09-03T03:59:59.450Z,69.93
2022-09-03T04:00:59.453Z,69.43
2022-09-03T04:01:59.459Z,69.32
2022-09-03T04:02:59.425Z,69.73
2022-09-03T04:03:59.406Z,68.99
2022-09-03T04:04:59.394Z,69.19
2022-09-03T04:05:59.383Z,68.99
2022-09-03T04:06:59.372Z,68.58
2022-09-03T04:07:59.377Z,67.97
2022-09-03T04:08:59.351Z,68.18
2022-09-03T04:09:59.343Z,68.27
2022-09-03T04:10:59.330Z,68.18
2022-09-03T04:11:59.320Z,68.07
2022-09-03T04:12:59.326Z,68.27
2022-09-03T04:13:59.298Z,68.14
2022-09-03T04:14:59.285Z,68.18
2022-09-03T04:15:59.305Z,68.18
2022-09-03T04:16:59.311Z,68.48
2022-09-03T04:17:59.263Z,68.24
2022-09-03T04:18:59.242Z,68.48
2022-09-03T04:19:59.232Z,68.18
2022-09-03T04:20:59.221Z,68.27
2022-09-03T04:21:59.209Z,67.87
2022-09-03T04:22:59.213Z,68.79
2022-09-03T04:23:59.188Z,68.88
2022-09-03T04:24:59.176Z,68.79
2022-09-03T04:25:59.165Z,68.82
2022-09-03T04:26:59.155Z,68.79
2022-09-03T04:27:59.161Z,69.12
2022-09-03T04:28:59.134Z,69.09
2022-09-03T04:29:59.122Z,68.99
2022-09-03T04:30:59.160Z,69.09
2022-09-03T04:31:59.105Z,69.19
2022-09-03T04:32:59.101Z,69.09
2022-09-03T04:33:59.077Z,68.88
2022-09-03T04:34:59.067Z,68.88
2022-09-03T04:35:59.056Z,69.29
2022-09-03T04:36:59.071Z,68.99
2022-09-03T04:37:59.045Z,69.29
2022-09-03T04:38:59.024Z,69.19
2022-09-03T04:39:59.065Z,69.26
2022-09-03T04:40:59.003Z,69.29
2022-09-03T04:42:00.185Z,68.96
2022-09-03T04:42:58.995Z,69.26
2022-09-03T04:43:58.979Z,69.57
2022-09-03T04:44:58.959Z,69.46
2022-09-03T04:45:59.011Z,69.26
2022-09-03T04:46:58.936Z,69.16
2022-09-03T04:47:58.936Z,69.67
2022-09-03T04:48:58.915Z,69.67
2022-09-03T04:49:58.912Z,69.36
2022-09-03T04:50:58.896Z,69.16
2022-09-03T04:51:58.913Z,69.57
2022-09-03T04:52:58.882Z,69.46
2022-09-03T04:53:58.859Z,69.77
2022-09-03T04:54:58.849Z,69.77
2022-09-03T04:55:58.850Z,69.26
2022-09-03T04:56:58.826Z,69.46
2022-09-03T04:57:58.827Z,69.77
2022-09-03T04:58:58.812Z,69.26
2022-09-03T04:59:58.791Z,69.46
2022-09-03T05:00:58.868Z,69.67
2022-09-03T05:01:58.791Z,69.57
2022-09-03T05:02:58.770Z,69.36
2022-09-03T05:03:58.747Z,69.33
2022-09-03T05:04:58.740Z,69.33
2022-09-03T05:05:58.726Z,69.53
2022-09-03T05:06:58.717Z,69.43
2022-09-03T05:07:58.735Z,68.92
2022-09-03T05:08:58.694Z,69.13
2022-09-03T05:09:58.681Z,69.02
2022-09-03T05:10:58.670Z,69.43
2022-09-03T05:11:58.662Z,69.43
2022-09-03T05:12:58.662Z,69.20
2022-09-03T05:13:58.636Z,69.53
2022-09-03T05:14:58.630Z,68.89
2022-09-03T05:15:58.684Z,68.62
2022-09-03T05:16:58.654Z,69.09
2022-09-03T05:17:58.608Z,68.82
2022-09-03T05:18:58.584Z,69.09
2022-09-03T05:19:58.574Z,69.09
2022-09-03T05:20:58.561Z,69.30
2022-09-03T05:21:58.552Z,69.30
2022-09-03T05:22:58.550Z,69.40
2022-09-03T05:23:58.526Z,69.50
2022-09-03T05:24:58.517Z,69.30
2022-09-03T05:25:58.505Z,69.20
2022-09-03T05:26:58.496Z,69.20
2022-09-03T05:27:58.497Z,69.40
2022-09-03T05:28:58.473Z,69.60
2022-09-03T05:29:58.465Z,69.50
2022-09-03T05:30:58.452Z,68.89
2022-09-03T05:31:58.483Z,68.99
2022-09-03T05:32:58.440Z,69.81
2022-09-03T05:33:58.453Z,70.11
2022-09-03T05:34:58.407Z,69.40
2022-09-03T05:35:58.394Z,69.70
2022-09-03T05:36:58.406Z,69.60
2022-09-03T05:37:58.381Z,70.11
2022-09-03T05:38:58.464Z,69.70
2022-09-03T05:39:58.441Z,69.67
2022-09-03T05:40:58.340Z,69.67
2022-09-03T05:41:58.329Z,69.40
2022-09-03T05:42:58.331Z,69.98
2022-09-03T05:43:58.308Z,69.26
2022-09-03T05:44:58.296Z,69.26
2022-09-03T05:45:58.333Z,69.17
2022-09-03T05:46:58.274Z,69.26
2022-09-03T05:47:58.271Z,69.47
2022-09-03T05:48:58.254Z,69.37
2022-09-03T05:49:58.240Z,69.87
2022-09-03T05:50:58.229Z,70.21
2022-09-03T05:51:58.217Z,69.57
2022-09-03T05:52:58.218Z,69.26
2022-09-03T05:53:58.196Z,69.64
2022-09-03T05:54:58.186Z,69.64
2022-09-03T05:55:58.173Z,69.43
2022-09-03T05:56:58.165Z,69.57
2022-09-03T05:57:58.165Z,69.87
2022-09-03T05:58:58.143Z,69.81
2022-09-03T05:59:58.129Z,70.31
2022-09-03T06:00:58.119Z,70.21
2022-09-03T06:02:00.078Z,70.52
2022-09-03T06:02:58.227Z,70.42
2022-09-03T06:03:58.088Z,70.59
2022-09-03T06:04:58.076Z,70.48
2022-09-03T06:05:58.064Z,69.87
2022-09-03T06:06:58.054Z,69.57
2022-09-03T06:07:58.050Z,69.78
2022-09-03T06:08:58.031Z,69.13
2022-09-03T06:09:58.020Z,69.84
2022-09-03T06:10:58.013Z,69.64
2022-09-03T06:11:57.999Z,69.98
2022-09-03T06:12:58.003Z,69.87
2022-09-03T06:13:57.979Z,70.21
2022-09-03T06:14:57.965Z,69.98
2022-09-03T06:15:57.989Z,70.28
2022-09-03T06:16:57.980Z,70.48
2022-09-03T06:17:57.947Z,70.68
2022-09-03T06:18:57.922Z,70.21
2022-09-03T06:19:57.911Z,70.48
2022-09-03T06:20:57.900Z,70.99
2022-09-03T06:21:57.888Z,71.30
2022-09-03T06:22:57.889Z,71.36
2022-09-03T06:23:58.427Z,71.16
2022-09-03T06:24:57.860Z,69.84
2022-09-03T06:26:01.962Z,70.32
2022-09-03T06:26:58.855Z,70.04
2022-09-03T06:27:57.831Z,70.04
2022-09-03T06:28:57.811Z,70.15
2022-09-03T06:29:57.800Z,69.84
2022-09-03T06:30:57.790Z,69.84
2022-09-03T06:31:57.834Z,69.81
2022-09-03T06:32:57.779Z,69.60
2022-09-03T06:34:01.982Z,69.84
2022-09-03T06:34:58.744Z,69.84
2022-09-03T06:35:57.734Z,69.95
2022-09-03T06:36:57.724Z,70.25
2022-09-03T06:37:57.716Z,69.64
2022-09-03T06:38:57.714Z,70.48
2022-09-03T06:39:57.749Z,70.89
2022-09-03T06:40:57.679Z,70.65
2022-09-03T06:41:57.673Z,70.18
2022-09-03T06:42:57.669Z,70.15
2022-09-03T06:43:57.644Z,70.15
2022-09-03T06:44:57.636Z,69.95
2022-09-03T06:45:57.738Z,69.51
2022-09-03T06:46:57.615Z,69.64
2022-09-03T06:47:57.610Z,69.54
2022-09-03T06:48:57.592Z,69.64
2022-09-03T06:49:57.579Z,69.34
2022-09-03T06:50:57.571Z,69.81
2022-09-03T06:51:57.558Z,69.60
2022-09-03T06:52:57.569Z,70.01
2022-09-03T06:53:57.535Z,69.91
2022-09-03T06:54:57.528Z,69.51
2022-09-03T06:55:57.517Z,69.30
2022-09-03T06:56:57.508Z,69.51
2022-09-03T06:57:57.506Z,69.68
2022-09-03T06:58:57.484Z,68.76
2022-09-03T06:59:57.470Z,68.52
2022-09-03T07:00:57.531Z,68.63
2022-09-03T07:01:57.648Z,68.83
2022-09-03T07:02:57.456Z,69.17
2022-09-03T07:03:57.424Z,68.87
2022-09-03T07:04:57.418Z,68.73
2022-09-03T07:05:57.409Z,69.03
2022-09-03T07:06:57.397Z,68.63
2022-09-03T07:07:57.393Z,68.93
2022-09-03T07:08:57.374Z,69.31
2022-09-03T07:09:57.366Z,68.90
2022-09-03T07:10:57.365Z,68.56
2022-09-03T07:11:57.371Z,68.06
2022-09-03T07:12:57.341Z,68.06
2022-09-03T07:13:57.317Z,67.76
2022-09-03T07:14:57.307Z,67.55
2022-09-03T07:15:57.340Z,67.25
2022-09-03T07:16:57.288Z,66.71
2022-09-03T07:17:57.284Z,66.00
2022-09-03T07:18:57.263Z,65.80
2022-09-03T07:19:57.252Z,66.10
2022-09-03T07:20:57.242Z,66.27
2022-09-03T07:21:57.232Z,66.58
2022-09-03T07:22:57.235Z,66.67
2022-09-03T07:23:57.209Z,65.77
2022-09-03T07:24:57.196Z,66.07
2022-09-03T07:25:57.186Z,66.17
2022-09-03T07:26:57.176Z,66.24
2022-09-03T07:27:57.162Z,65.73
2022-09-03T07:28:57.162Z,65.64
2022-09-03T07:29:57.142Z,64.62
2022-09-03T07:30:57.134Z,64.73
2022-09-03T07:31:57.159Z,65.56
2022-09-03T07:32:57.109Z,65.84
2022-09-03T07:33:57.104Z,66.04
2022-09-03T07:34:57.087Z,66.14
2022-09-03T07:35:57.074Z,65.94
2022-09-03T07:36:57.063Z,65.73
2022-09-03T07:37:57.052Z,65.30
2022-09-03T07:38:57.056Z,65.10
2022-09-03T07:39:57.084Z,64.90
2022-09-03T07:40:57.027Z,65.64
2022-09-03T07:41:57.009Z,65.50
2022-09-03T07:42:56.999Z,65.91
2022-09-03T07:43:57.141Z,65.50
2022-09-03T07:44:57.005Z,65.53
2022-09-03T07:45:56.963Z,65.61
2022-09-03T07:46:56.981Z,65.40
2022-09-03T07:47:56.960Z,65.53
2022-09-03T07:48:56.930Z,64.70
2022-09-03T07:49:56.921Z,64.59
2022-09-03T07:50:56.932Z,64.90
2022-09-03T07:51:56.896Z,64.59
2022-09-03T07:52:56.948Z,64.29
2022-09-03T07:53:56.874Z,64.19
2022-09-03T07:54:56.864Z,64.59
2022-09-03T07:55:56.851Z,64.79
2022-09-03T07:56:56.851Z,64.49
2022-09-03T07:57:56.872Z,64.90
2022-09-03T07:58:56.848Z,65.70
2022-09-03T07:59:56.852Z,64.56
2022-09-03T08:00:56.842Z,64.46
2022-09-03T08:01:56.786Z,64.56
2022-09-03T08:02:56.798Z,64.76
2022-09-03T08:03:56.799Z,65.07
2022-09-03T08:04:56.762Z,65.24
2022-09-03T08:05:56.742Z,65.04
2022-09-03T08:06:56.792Z,63.12
2022-09-03T08:07:56.730Z,63.42
2022-09-03T08:08:58.740Z,63.02
2022-09-03T08:09:57.696Z,62.08
2022-09-03T08:10:56.687Z,62.96
2022-09-03T08:11:56.674Z,61.88
2022-09-03T08:12:56.676Z,62.15
2022-09-03T08:13:56.653Z,62.15
2022-09-03T08:14:56.644Z,61.85
2022-09-03T08:15:56.714Z,61.75
2022-09-03T08:16:56.623Z,62.12
2022-09-03T08:18:03.354Z,60.81
2022-09-03T08:18:57.600Z,61.29
2022-09-03T08:19:56.587Z,60.55
2022-09-03T08:20:56.622Z,60.25
2022-09-03T08:21:56.565Z,59.48
2022-09-03T08:22:56.570Z,58.38
2022-09-03T08:23:56.546Z,58.48
2022-09-03T08:24:56.535Z,57.95
2022-09-03T08:25:56.521Z,58.55
2022-09-03T08:26:56.513Z,57.57
2022-09-03T08:27:56.512Z,56.93
2022-09-03T08:28:56.516Z,56.93
2022-09-03T08:29:56.477Z,56.41
2022-09-03T08:30:56.607Z,55.85
2022-09-03T08:31:56.530Z,53.82
2022-09-03T08:32:56.464Z,52.89
2022-09-03T08:33:56.439Z,51.44
2022-09-03T08:34:56.425Z,51.29
2022-09-03T08:35:56.425Z,51.07
2022-09-03T08:36:56.402Z,49.97
2022-09-03T08:37:57.048Z,49.35
2022-09-03T08:38:56.380Z,48.90
2022-09-03T08:39:56.388Z,48.58
2022-09-03T08:40:56.359Z,47.75
2022-09-03T08:41:56.349Z,47.33
2022-09-03T08:42:56.351Z,47.41
2022-09-03T08:43:56.329Z,46.81
2022-09-03T08:44:56.316Z,46.69
2022-09-03T08:45:56.307Z,46.61
2022-09-03T08:46:56.308Z,47.21
2022-09-03T08:47:56.296Z,46.44
2022-09-03T08:48:56.276Z,46.91
2022-09-03T08:49:56.266Z,46.61
2022-09-03T08:50:56.253Z,46.30
2022-09-03T08:51:56.243Z,45.97
2022-09-03T08:52:56.276Z,45.26
2022-09-03T08:53:56.228Z,44.64
2022-09-03T08:54:56.211Z,44.66
2022-09-03T08:55:56.239Z,44.96
2022-09-03T08:56:56.244Z,44.78
2022-09-03T08:57:56.182Z,45.15
2022-09-03T08:58:56.167Z,44.42
2022-09-03T08:59:56.213Z,44.42
2022-09-03T09:00:56.147Z,44.02
2022-09-03T09:01:56.283Z,43.01
2022-09-03T09:02:56.198Z,44.40
2022-09-03T09:03:56.119Z,44.40
2022-09-03T09:04:56.104Z,43.80
2022-09-03T09:05:56.097Z,42.99
2022-09-03T09:06:56.097Z,42.51
2022-09-03T09:07:56.096Z,43.80
2022-09-03T09:08:56.063Z,43.50
2022-09-03T09:09:56.054Z,43.48
2022-09-03T09:10:56.041Z,43.58
2022-09-03T09:11:56.046Z,42.96
2022-09-03T09:12:56.020Z,42.58
2022-09-03T09:13:56.013Z,42.29
2022-09-03T09:14:56.015Z,42.79
2022-09-03T09:15:56.071Z,42.91
2022-09-03T09:16:55.990Z,43.52
2022-09-03T09:17:55.971Z,43.72
2022-09-03T09:18:55.959Z,43.18
2022-09-03T09:19:55.951Z,43.18
2022-09-03T09:20:55.957Z,42.39
2022-09-03T09:21:55.942Z,41.67
2022-09-03T09:22:55.921Z,41.67
2022-09-03T09:23:55.912Z,42.15
2022-09-03T09:24:55.898Z,42.60
2022-09-03T09:25:55.908Z,42.01
2022-09-03T09:26:55.895Z,41.22
2022-09-03T09:27:55.870Z,41.52
2022-09-03T09:28:55.857Z,41.31
2022-09-03T09:29:55.848Z,41.30
2022-09-03T09:30:55.873Z,41.10
2022-09-03T09:31:55.841Z,40.78
2022-09-03T09:32:55.849Z,39.99
2022-09-03T09:33:55.808Z,39.77
2022-09-03T09:34:55.799Z,39.87
2022-09-03T09:35:55.811Z,41.36
2022-09-03T09:36:55.789Z,40.86
2022-09-03T09:37:55.769Z,40.47
2022-09-03T09:38:55.755Z,40.25
2022-09-03T09:39:55.787Z,40.17
2022-09-03T09:40:55.753Z,40.96
2022-09-03T09:41:55.727Z,38.88
2022-09-03T09:42:55.717Z,38.82
2022-09-03T09:43:55.708Z,38.82
2022-09-03T09:44:55.699Z,38.51
2022-09-03T09:45:55.687Z,37.96
2022-09-03T09:46:55.707Z,37.96
2022-09-03T09:47:55.666Z,38.57
2022-09-03T09:48:55.654Z,38.65
2022-09-03T09:49:55.648Z,38.90
2022-09-03T09:50:55.634Z,38.82
2022-09-03T09:51:55.634Z,37.15
2022-09-03T09:52:59.059Z,37.05
2022-09-03T09:53:55.606Z,37.54
2022-09-03T09:54:55.593Z,37.85
2022-09-03T09:55:55.586Z,37.89
2022-09-03T09:56:55.583Z,38.70
2022-09-03T09:57:55.612Z,38.42
2022-09-03T09:58:55.554Z,37.93
2022-09-03T09:59:55.546Z,38.94
2022-09-03T10:00:55.532Z,39.43
2022-09-03T10:01:55.557Z,38.96
2022-09-03T10:02:55.552Z,38.94
2022-09-03T10:03:55.567Z,38.32
2022-09-03T10:04:55.492Z,39.61
2022-09-03T10:05:55.485Z,38.23
2022-09-03T10:06:55.488Z,38.62
2022-09-03T10:07:55.467Z,38.60
2022-09-03T10:08:55.453Z,38.31
2022-09-03T10:09:55.445Z,38.80
2022-09-03T10:10:55.434Z,37.00
2022-09-03T10:11:55.462Z,37.70
2022-09-03T10:12:55.412Z,36.98
2022-09-03T10:13:55.405Z,36.27
2022-09-03T10:14:55.393Z,35.99
2022-09-03T10:15:55.422Z,37.38
2022-09-03T10:16:55.388Z,37.18
2022-09-03T10:17:55.364Z,37.02
2022-09-03T10:18:55.374Z,39.15
2022-09-03T10:19:55.360Z,38.90
2022-09-03T10:20:55.333Z,40.42
2022-09-03T10:21:55.335Z,40.56
2022-09-03T10:22:56.899Z,39.63
2022-09-03T10:23:55.308Z,39.29
2022-09-03T10:24:55.295Z,40.12
2022-09-03T10:25:55.295Z,40.24
2022-09-03T10:26:55.272Z,40.26
2022-09-03T10:27:55.264Z,41.28
2022-09-03T10:28:56.819Z,42.41
2022-09-03T10:29:55.251Z,42.43
2022-09-03T10:30:55.283Z,42.15
2022-09-03T10:31:55.220Z,43.29
2022-09-03T10:32:55.212Z,43.31
2022-09-03T10:33:55.201Z,44.11
2022-09-03T10:34:55.252Z,44.43
2022-09-03T10:35:55.196Z,43.83
2022-09-03T10:36:55.166Z,44.35
2022-09-03T10:37:55.160Z,43.35
2022-09-03T10:38:55.148Z,44.97
2022-09-03T10:39:55.150Z,44.70
2022-09-03T10:40:55.131Z,44.79
2022-09-03T10:41:55.144Z,45.92
2022-09-03T10:42:55.101Z,45.51
2022-09-03T10:43:55.093Z,46.64
2022-09-03T10:44:55.084Z,45.84
2022-09-03T10:45:55.128Z,46.14
2022-09-03T10:46:55.059Z,45.14
2022-09-03T10:47:55.052Z,46.01
2022-09-03T10:48:55.037Z,46.42
2022-09-03T10:49:55.025Z,45.62
2022-09-03T10:50:55.025Z,45.84
2022-09-03T10:51:55.003Z,46.14
2022-09-03T10:52:54.991Z,45.56
2022-09-03T10:53:54.982Z,46.66
2022-09-03T10:54:54.969Z,47.26
2022-09-03T10:55:54.975Z,47.36
2022-09-03T10:56:54.948Z,46.76
2022-09-03T10:57:54.938Z,47.26
2022-09-03T10:58:54.926Z,46.16
2022-09-03T10:59:54.917Z,45.96
2022-09-03T11:00:55.031Z,45.36
2022-09-03T11:01:54.942Z,46.84
2022-09-03T11:02:55.000Z,47.24
2022-09-03T11:03:54.873Z,45.43
2022-09-03T11:04:54.861Z,44.93
2022-09-03T11:05:54.861Z,45.74
2022-09-03T11:06:54.841Z,45.74
2022-09-03T11:07:54.833Z,46.04
2022-09-03T11:08:54.863Z,44.71
2022-09-03T11:09:54.809Z,45.12
2022-09-03T11:10:54.844Z,45.62
2022-09-03T11:11:54.786Z,44.62
2022-09-03T11:12:54.772Z,43.90
2022-09-03T11:13:54.763Z,43.62
2022-09-03T11:14:54.752Z,45.20
2022-09-03T11:15:54.852Z,45.69
2022-09-03T11:16:54.729Z,45.20
2022-09-03T11:17:54.725Z,45.09
2022-09-03T11:18:54.709Z,43.82
2022-09-03T11:19:54.701Z,44.32
2022-09-03T11:20:54.700Z,44.42
2022-09-03T11:21:54.679Z,44.62
2022-09-03T11:22:54.670Z,44.43
2022-09-03T11:23:55.272Z,44.43
2022-09-03T11:24:54.645Z,44.84
2022-09-03T11:25:54.649Z,45.34
2022-09-03T11:26:54.625Z,44.01
2022-09-03T11:27:56.709Z,45.12
2022-09-03T11:28:54.603Z,45.72
2022-09-03T11:29:54.632Z,45.50
2022-09-03T11:30:54.640Z,45.00
2022-09-03T11:31:54.573Z,45.20
2022-09-03T11:32:55.722Z,45.00
2022-09-03T11:33:54.552Z,43.51
2022-09-03T11:34:54.578Z,44.62
2022-09-03T11:35:54.538Z,44.62
2022-09-03T11:36:54.517Z,44.32
2022-09-03T11:37:54.527Z,44.51
2022-09-03T11:38:54.497Z,44.62
2022-09-03T11:39:54.552Z,45.12
2022-09-03T11:40:54.485Z,45.01
2022-09-03T11:41:54.467Z,44.93
2022-09-03T11:42:54.483Z,45.01
2022-09-03T11:43:54.445Z,45.51
2022-09-03T11:44:54.434Z,44.92
2022-09-03T11:45:54.499Z,45.09
2022-09-03T11:46:54.412Z,44.01
2022-09-03T11:47:54.407Z,44.39
2022-09-03T11:48:54.392Z,42.79
2022-09-03T11:49:54.384Z,43.48
2022-09-03T11:50:54.382Z,43.07
2022-09-03T11:51:54.364Z,43.27
2022-09-03T11:52:54.354Z,43.18
2022-09-03T11:53:54.363Z,41.47
2022-09-03T11:54:54.327Z,41.80
2022-09-03T11:55:54.355Z,42.68
2022-09-03T11:56:54.356Z,41.38
2022-09-03T11:57:54.301Z,42.10
2022-09-03T11:58:54.284Z,42.69
2022-09-03T11:59:54.275Z,41.38
2022-09-03T12:00:54.275Z,41.49
2022-09-03T12:01:54.342Z,41.09
2022-09-03T12:02:58.649Z,41.19
2022-09-03T12:03:54.231Z,41.69
2022-09-03T12:04:54.269Z,42.10
2022-09-03T12:05:54.224Z,41.99
2022-09-03T12:06:54.199Z,43.18
2022-09-03T12:07:54.187Z,43.27
2022-09-03T12:08:54.175Z,42.25
2022-09-03T12:09:54.167Z,43.45
2022-09-03T12:10:54.163Z,41.96
2022-09-03T12:11:54.143Z,41.75
2022-09-03T12:12:54.130Z,42.25
2022-09-03T12:13:54.124Z,41.55
2022-09-03T12:14:54.114Z,41.85
2022-09-03T12:15:54.177Z,41.25
2022-09-03T12:16:54.088Z,40.06
2022-09-03T12:17:54.077Z,39.84
2022-09-03T12:18:54.067Z,40.64
2022-09-03T12:19:54.058Z,41.14
2022-09-03T12:20:54.056Z,41.66
2022-09-03T12:21:54.034Z,41.53
2022-09-03T12:23:58.313Z,41.53
2022-09-03T12:24:53.999Z,41.24
2022-09-03T12:25:54.031Z,41.74
2022-09-03T12:26:53.978Z,41.24
2022-09-03T12:27:53.969Z,41.25
2022-09-03T12:28:53.954Z,42.15
2022-09-03T12:29:53.947Z,41.25
2022-09-03T12:30:54.122Z,41.55
2022-09-03T12:31:53.925Z,41.85
2022-09-03T12:32:53.912Z,41.66
2022-09-03T12:33:53.902Z,42.35
2022-09-03T12:34:53.897Z,42.85
2022-09-03T12:36:01.230Z,41.85
2022-09-03T12:36:54.867Z,42.38
2022-09-03T12:38:12.835Z,43.15
2022-09-03T12:39:11.560Z,42.76
2022-09-03T12:40:10.237Z,41.75
2022-09-03T12:41:54.963Z,41.17
2022-09-03T12:42:54.029Z,41.38
2022-09-03T12:43:54.038Z,41.55
2022-09-03T12:44:53.795Z,42.27
2022-09-03T12:47:34.061Z,41.25
2022-09-03T12:47:54.794Z,41.38
2022-09-03T12:49:54.731Z,41.88
2022-09-03T12:50:56.533Z,42.87
2022-09-03T12:51:57.437Z,42.90
2022-09-03T12:52:54.701Z,43.37
2022-09-03T12:53:53.688Z,42.38
2022-09-03T12:54:53.679Z,42.97
2022-09-03T12:55:53.676Z,41.67